Welcome to Northern Hawkes Bay. New Zealand.
PWS Header
      nz Flag



Hit Counter


W3C Valid W3C Valid logo


    Wairoa

Select any of the Stations below to visit their websites.










Historic Data from Weather Underground
Select the location of interest below. Wairoa is the default. Please have patience, this Data is slow to load in.
Northern Hawkes Bay Historical Data
Daily Summary for November 19, 2017 Units:  Metric    English   Both
« Previous Day
Next Day »
Daily Weekly Monthly Yearly Custom
  High: Low: Average:
Temperature: 16.5 °C 12.8 °C 14.2 °C
Dew Point: 12.9 °C 10.8 °C 12.1 °C
Humidity: 99% 71% 88%
Wind Speed: 25.6km/h 1.1km/h 16.1km/h
Wind Gust: 43.9km/h - -
Wind- - South
Pressure: 1016.8 hPa 1013.8 hPa -
Precipitation: 1.3 mm    
Historical Graphs
 
 
Tabular Data for November 19, 2017
Time Temperature Dew Point Pressure Wind Wind Speed Wind Gust Humidity Rainfall Rate (Hourly) solar
00:03 13.6 °C 12.2 °C 1014.8 hPa SSE 13.4 km/h 37.8 km/h 91% 0.0 mm 50 W/m2
00:13 13.8 °C 12.4 °C 1014.4 hPa South 17.2 km/h 29.4 km/h 91% 0.3 mm 16 W/m2
00:18 13.6 °C 12.2 °C 1014.4 hPa South 14.8 km/h 29.4 km/h 91% 0.3 mm 22 W/m2
00:39 13.6 °C 12.5 °C 1014.8 hPa South 15.8 km/h 34.3 km/h 93% 0.3 mm 13 W/m2
00:49 13.4 °C 12.6 °C 1014.8 hPa South 14.8 km/h 25.6 km/h 95% 0.3 mm 19 W/m2
00:54 13.3 °C 12.3 °C 1014.8 hPa South 15.8 km/h 27.0 km/h 94% 0.3 mm 16 W/m2
01:19 13.6 °C 12.2 °C 1014.8 hPa South 19.5 km/h 36.7 km/h 91% 0.3 mm 36 W/m2
01:49 13.7 °C 11.9 °C 1014.8 hPa SSW 15.8 km/h 34.3 km/h 89% 0.3 mm 3 W/m2
01:54 13.9 °C 12.1 °C 1014.8 hPa SSW 17.2 km/h 31.7 km/h 89% 0.3 mm 0 W/m2
01:59 14.1 °C 12.0 °C 1014.4 hPa South 14.8 km/h 33.1 km/h 87% 0.3 mm 0 W/m2
02:04 14.2 °C 12.2 °C 1014.8 hPa South 21.9 km/h 33.1 km/h 88% 0.0 mm 0 W/m2
02:09 14.1 °C 12.0 °C 1014.4 hPa South 17.2 km/h 33.1 km/h 87% 0.0 mm 0 W/m2
02:19 14.1 °C 12.0 °C 1014.8 hPa South 17.2 km/h 27.0 km/h 87% 0.0 mm 0 W/m2
02:24 14.1 °C 12.0 °C 1014.8 hPa South 17.2 km/h 30.6 km/h 87% 0.0 mm 0 W/m2
02:29 14.2 °C 12.2 °C 1014.8 hPa South 24.5 km/h 31.7 km/h 88% 0.0 mm 0 W/m2
02:34 14.0 °C 12.2 °C 1014.8 hPa SSW 14.8 km/h 35.6 km/h 89% 0.0 mm 0 W/m2
02:39 13.8 °C 12.4 °C 1014.8 hPa SSW 13.4 km/h 35.6 km/h 91% 0.0 mm 0 W/m2
02:44 13.7 °C 12.4 °C 1014.8 hPa South 12.2 km/h 27.0 km/h 92% 0.0 mm 0 W/m2
02:54 13.8 °C 12.8 °C 1014.8 hPa South 17.2 km/h 27.0 km/h 94% 0.0 mm 0 W/m2
03:21 14.1 °C 12.0 °C 1015.1 hPa South 15.8 km/h 31.7 km/h 87% 0.3 mm 0 W/m2
03:49 14.1 °C 11.8 °C 1015.1 hPa South 21.9 km/h 42.8 km/h 86% 0.3 mm 0 W/m2
03:54 14.1 °C 11.8 °C 1015.1 hPa South 20.9 km/h 42.8 km/h 86% 0.3 mm 0 W/m2
03:59 14.2 °C 12.1 °C 1015.5 hPa South 15.8 km/h 35.6 km/h 87% 0.3 mm 0 W/m2
04:04 14.3 °C 12.2 °C 1015.1 hPa SSW 24.5 km/h 35.6 km/h 87% 0.0 mm 0 W/m2
04:09 14.3 °C 11.8 °C 1015.1 hPa South 14.8 km/h 34.3 km/h 85% 0.0 mm 0 W/m2
04:24 14.5 °C 12.0 °C 1015.5 hPa South 12.2 km/h 30.6 km/h 85% 0.0 mm 0 W/m2
04:34 14.5 °C 12.0 °C 1015.1 hPa South 20.9 km/h 31.7 km/h 85% 0.0 mm 0 W/m2
04:39 14.5 °C 12.0 °C 1015.1 hPa SSW 15.8 km/h 31.7 km/h 85% 0.0 mm 0 W/m2
04:44 14.5 °C 11.8 °C 1015.1 hPa SSW 19.5 km/h 33.1 km/h 84% 0.0 mm 0 W/m2
04:49 14.5 °C 11.8 °C 1015.1 hPa South 18.3 km/h 33.1 km/h 84% 0.0 mm 0 W/m2
04:54 14.5 °C 12.0 °C 1015.1 hPa South 14.8 km/h 33.1 km/h 85% 0.0 mm 0 W/m2
04:59 14.5 °C 12.2 °C 1015.1 hPa South 18.3 km/h 28.0 km/h 86% 0.0 mm 0 W/m2
05:14 14.4 °C 11.9 °C 1015.1 hPa South 15.8 km/h 30.6 km/h 85% 0.0 mm 0 W/m2
05:19 14.4 °C 11.9 °C 1014.8 hPa South 12.2 km/h 30.6 km/h 85% 0.0 mm 0 W/m2
05:24 14.4 °C 11.9 °C 1014.8 hPa South 18.3 km/h 28.0 km/h 85% 0.0 mm 0 W/m2
05:26 14.4 °C 11.9 °C 1014.8 hPa South 17.2 km/h 34.3 km/h 85% 0.0 mm 0 W/m2
05:31 14.4 °C 11.9 °C 1014.8 hPa South 17.2 km/h 34.3 km/h 85% 0.0 mm 0 W/m2
05:46 14.4 °C 11.6 °C 1014.8 hPa South 12.2 km/h 28.0 km/h 83% 0.0 mm 0 W/m2
05:51 14.5 °C 11.8 °C 1014.8 hPa South 15.8 km/h 27.0 km/h 84% 0.0 mm 0 W/m2
05:56 14.5 °C 11.8 °C 1015.1 hPa South 9.7 km/h 29.4 km/h 84% 0.0 mm 0 W/m2
06:01 14.4 °C 11.7 °C 1014.8 hPa South 19.5 km/h 29.4 km/h 84% 0.0 mm 0 W/m2
06:06 14.1 °C 11.4 °C 1014.8 hPa South 12.2 km/h 28.0 km/h 84% 0.0 mm 0 W/m2
06:11 14.0 °C 11.7 °C 1014.8 hPa South 15.8 km/h 28.0 km/h 86% 0.0 mm 0 W/m2
06:21 14.1 °C 11.8 °C 1014.8 hPa South 15.8 km/h 29.4 km/h 86% 0.0 mm 0 W/m2
06:26 14.3 °C 11.8 °C 1014.8 hPa South 17.2 km/h 31.7 km/h 85% 0.0 mm 0 W/m2
06:31 14.3 °C 11.8 °C 1014.4 hPa South 14.8 km/h 31.7 km/h 85% 0.0 mm 0 W/m2
06:36 14.3 °C 11.8 °C 1014.8 hPa South 12.2 km/h 30.6 km/h 85% 0.0 mm 0 W/m2
06:41 14.3 °C 11.8 °C 1014.8 hPa South 17.2 km/h 30.6 km/h 85% 0.0 mm 0 W/m2
06:46 14.4 °C 11.7 °C 1014.8 hPa South 14.8 km/h 29.4 km/h 84% 0.0 mm 0 W/m2
06:51 14.3 °C 11.4 °C 1014.4 hPa South 13.4 km/h 29.4 km/h 83% 0.0 mm 0 W/m2
06:56 14.3 °C 11.8 °C 1014.4 hPa South 11.1 km/h 31.7 km/h 85% 0.0 mm 0 W/m2
07:01 14.3 °C 11.8 °C 1014.4 hPa SSW 15.8 km/h 31.7 km/h 85% 0.0 mm 0 W/m2
07:06 14.4 °C 11.7 °C 1014.4 hPa South 19.5 km/h 25.6 km/h 84% 0.0 mm 0 W/m2
07:11 14.4 °C 11.0 °C 1014.4 hPa SSW 18.3 km/h 29.4 km/h 80% 0.0 mm 0 W/m2
07:16 14.5 °C 11.4 °C 1014.4 hPa SSW 14.8 km/h 29.4 km/h 82% 0.0 mm 0 W/m2
07:21 14.4 °C 11.9 °C 1014.4 hPa South 12.2 km/h 24.5 km/h 85% 0.0 mm 0 W/m2
07:26 14.0 °C 11.3 °C 1014.4 hPa South 12.2 km/h 24.5 km/h 84% 0.0 mm 0 W/m2
07:36 14.0 °C 11.7 °C 1014.4 hPa SSW 14.8 km/h 30.6 km/h 86% 0.0 mm 0 W/m2
07:41 13.7 °C 11.9 °C 1014.4 hPa SSW 14.8 km/h 33.1 km/h 89% 0.0 mm 0 W/m2
07:46 13.5 °C 11.9 °C 1014.4 hPa SSW 8.7 km/h 33.1 km/h 90% 0.0 mm 0 W/m2
07:56 13.5 °C 11.7 °C 1014.4 hPa SSW 11.1 km/h 23.3 km/h 89% 0.0 mm 0 W/m2
08:01 13.5 °C 11.7 °C 1014.4 hPa SSW 5.0 km/h 23.3 km/h 89% 0.0 mm 0 W/m2
08:06 13.5 °C 12.1 °C 1014.4 hPa SSW 12.2 km/h 23.3 km/h 91% 0.0 mm 0 W/m2
08:11 13.5 °C 12.2 °C 1014.1 hPa South 12.2 km/h 23.3 km/h 92% 0.0 mm 0 W/m2
08:16 13.5 °C 12.2 °C 1014.1 hPa South 18.3 km/h 25.6 km/h 92% 0.0 mm 0 W/m2
08:21 13.5 °C 12.1 °C 1014.1 hPa SSW 15.8 km/h 25.6 km/h 91% 0.0 mm 0 W/m2
08:26 13.5 °C 12.1 °C 1014.4 hPa SSW 7.2 km/h 25.6 km/h 91% 0.0 mm 0 W/m2
08:36 13.5 °C 12.2 °C 1014.1 hPa South 1.1 km/h 29.4 km/h 92% 0.0 mm 0 W/m2
08:41 13.1 °C 12.0 °C 1014.1 hPa SSE 6.1 km/h 29.4 km/h 93% 0.0 mm 0 W/m2
08:46 12.9 °C 11.9 °C 1014.4 hPa SSE 5.0 km/h 13.4 km/h 94% 0.0 mm 0 W/m2
09:12 13.2 °C 12.4 °C 1014.4 hPa SSW 11.1 km/h 21.9 km/h 95% 0.0 mm 0 W/m2
09:17 13.0 °C 12.2 °C 1014.1 hPa SSW 11.1 km/h 21.9 km/h 95% 0.0 mm 0 W/m2
09:22 13.0 °C 12.4 °C 1014.1 hPa SSW 14.8 km/h 18.3 km/h 96% 0.0 mm 0 W/m2
09:27 13.0 °C 12.6 °C 1014.1 hPa South 15.8 km/h 24.5 km/h 97% 0.0 mm 0 W/m2
09:32 12.9 °C 12.4 °C 1013.8 hPa South 14.8 km/h 24.5 km/h 97% 0.0 mm 0 W/m2
09:37 12.8 °C 12.3 °C 1014.1 hPa South 7.2 km/h 23.3 km/h 97% 0.0 mm 0 W/m2
09:42 12.8 °C 12.3 °C 1014.1 hPa SSW 6.1 km/h 21.9 km/h 97% 0.0 mm 0 W/m2
09:47 12.8 °C 12.3 °C 1014.1 hPa SSW 17.2 km/h 21.9 km/h 97% 0.0 mm 0 W/m2
09:52 12.9 °C 12.4 °C 1014.1 hPa SSW 12.2 km/h 21.9 km/h 97% 0.0 mm 0 W/m2
10:27 13.1 °C 12.9 °C 1014.1 hPa South 19.5 km/h 29.4 km/h 99% 0.0 mm 0 W/m2
10:32 13.3 °C 12.8 °C 1014.1 hPa South 7.2 km/h 29.4 km/h 97% 0.0 mm 0 W/m2
10:37 13.4 °C 12.8 °C 1014.1 hPa South 15.8 km/h 29.4 km/h 96% 0.0 mm 0 W/m2
10:42 13.3 °C 12.7 °C 1014.1 hPa SSW 11.1 km/h 21.9 km/h 96% 0.0 mm 0 W/m2
10:47 13.3 °C 12.8 °C 1014.1 hPa SSW 9.7 km/h 21.9 km/h 97% 0.0 mm 0 W/m2
10:52 13.2 °C 12.9 °C 1014.1 hPa SSW 25.6 km/h 30.6 km/h 98% 0.3 mm 0 W/m2
11:02 12.8 °C 12.3 °C 1014.1 hPa SSW 17.2 km/h 34.3 km/h 97% 0.3 mm 0 W/m2
11:10 12.9 °C 12.4 °C 1014.1 hPa South 12.2 km/h 33.1 km/h 97% 0.3 mm 0 W/m2
11:26 12.8 °C 12.3 °C 1014.4 hPa South 14.8 km/h 39.3 km/h 97% 0.3 mm 0 W/m2
11:31 12.9 °C 12.4 °C 1014.4 hPa SSW 12.2 km/h 33.1 km/h 97% 0.3 mm 0 W/m2
11:36 12.9 °C 12.4 °C 1014.4 hPa South 11.1 km/h 33.1 km/h 97% 0.3 mm 0 W/m2
11:46 12.9 °C 12.4 °C 1014.4 hPa South 14.8 km/h 27.0 km/h 97% 0.3 mm 0 W/m2
11:51 12.9 °C 12.4 °C 1014.4 hPa SSE 12.2 km/h 27.0 km/h 97% 0.0 mm 0 W/m2
11:56 13.1 °C 12.8 °C 1014.8 hPa South 23.3 km/h 30.6 km/h 98% 0.0 mm 0 W/m2
12:01 12.9 °C 12.4 °C 1014.4 hPa South 19.5 km/h 35.6 km/h 97% 0.3 mm 6 W/m2
12:06 12.9 °C 12.4 °C 1014.4 hPa South 14.8 km/h 35.6 km/h 97% 0.3 mm 10 W/m2
12:16 12.8 °C 12.3 °C 1014.8 hPa SSW 12.2 km/h 33.1 km/h 97% 0.3 mm 27 W/m2
12:21 13.0 °C 12.8 °C 1014.4 hPa SSW 19.5 km/h 30.6 km/h 99% 0.3 mm 35 W/m2
12:31 13.5 °C 12.7 °C 1014.8 hPa South 15.8 km/h 31.7 km/h 95% 0.3 mm 50 W/m2
12:36 13.5 °C 12.6 °C 1014.8 hPa SSW 23.3 km/h 41.7 km/h 94% 0.3 mm 54 W/m2
12:41 13.4 °C 12.6 °C 1014.8 hPa SSW 21.9 km/h 43.9 km/h 95% 0.3 mm 73 W/m2
12:46 13.2 °C 12.4 °C 1014.8 hPa SSW 21.9 km/h 43.9 km/h 95% 0.3 mm 95 W/m2
13:06 13.7 °C 12.8 °C 1015.1 hPa SSW 21.9 km/h 36.7 km/h 94% 0.0 mm 47 W/m2
13:11 13.5 °C 12.7 °C 1015.1 hPa South 23.3 km/h 39.3 km/h 95% 0.0 mm 78 W/m2
13:21 13.2 °C 12.6 °C 1015.1 hPa SSW 17.2 km/h 35.6 km/h 96% 0.0 mm 74 W/m2
13:26 13.2 °C 12.6 °C 1015.5 hPa SSW 14.8 km/h 35.6 km/h 96% 0.0 mm 79 W/m2
13:31 13.3 °C 12.7 °C 1015.5 hPa SSW 13.4 km/h 31.7 km/h 96% 0.0 mm 68 W/m2
13:36 13.2 °C 12.6 °C 1015.5 hPa South 20.9 km/h 34.3 km/h 96% 0.0 mm 78 W/m2
13:46 12.9 °C 12.3 °C 1015.5 hPa South 18.3 km/h 35.6 km/h 96% 0.0 mm 108 W/m2
13:51 13.2 °C 12.6 °C 1015.5 hPa South 17.2 km/h 30.6 km/h 96% 0.0 mm 115 W/m2
14:01 13.7 °C 12.8 °C 1015.5 hPa South 7.2 km/h 21.9 km/h 94% 0.0 mm 114 W/m2
14:06 13.8 °C 12.7 °C 1015.8 hPa South 19.5 km/h 29.4 km/h 93% 0.0 mm 50 W/m2
14:11 13.4 °C 12.6 °C 1015.8 hPa South 21.9 km/h 31.7 km/h 95% 0.3 mm 70 W/m2
14:16 13.1 °C 12.5 °C 1015.5 hPa South 18.3 km/h 31.7 km/h 96% 0.3 mm 85 W/m2
14:22 13.2 °C 12.6 °C 1015.8 hPa SSW 13.4 km/h 30.6 km/h 96% 0.3 mm 105 W/m2
14:27 13.3 °C 12.7 °C 1015.8 hPa South 17.2 km/h 30.6 km/h 96% 0.3 mm 108 W/m2
14:37 13.2 °C 12.4 °C 1016.1 hPa South 17.2 km/h 37.8 km/h 95% 0.3 mm 147 W/m2
14:42 13.3 °C 12.5 °C 1015.8 hPa South 14.8 km/h 37.8 km/h 95% 0.3 mm 167 W/m2
14:47 13.5 °C 12.7 °C 1015.8 hPa SSW 13.4 km/h 25.6 km/h 95% 0.3 mm 149 W/m2
14:57 13.5 °C 12.6 °C 1016.1 hPa South 19.5 km/h 27.0 km/h 94% 0.3 mm 116 W/m2
15:07 13.2 °C 12.6 °C 1016.1 hPa SSE 14.8 km/h 27.0 km/h 96% 0.3 mm 159 W/m2
15:17 13.3 °C 12.8 °C 1016.1 hPa SSE 14.8 km/h 24.5 km/h 97% 0.3 mm 144 W/m2
15:22 13.1 °C 12.7 °C 1016.1 hPa SSE 17.2 km/h 24.5 km/h 97% 0.3 mm 125 W/m2
15:27 13.1 °C 12.7 °C 1016.1 hPa South 12.2 km/h 24.5 km/h 97% 0.3 mm 115 W/m2
15:47 13.5 °C 12.6 °C 1016.5 hPa SSW 15.8 km/h 30.6 km/h 94% 0.3 mm 155 W/m2
15:52 13.5 °C 12.4 °C 1016.5 hPa SSW 13.4 km/h 30.6 km/h 93% 0.3 mm 139 W/m2
15:57 13.5 °C 12.2 °C 1016.5 hPa South 18.3 km/h 30.6 km/h 92% 0.3 mm 128 W/m2
16:02 13.5 °C 12.4 °C 1016.1 hPa South 11.1 km/h 29.4 km/h 93% 0.3 mm 178 W/m2
16:07 13.5 °C 12.6 °C 1016.5 hPa South 12.2 km/h 25.6 km/h 94% 0.3 mm 195 W/m2
16:12 14.0 °C 12.6 °C 1016.1 hPa South 9.7 km/h 20.9 km/h 91% 0.3 mm 184 W/m2
16:17 14.3 °C 12.5 °C 1016.1 hPa South 8.7 km/h 20.9 km/h 89% 0.0 mm 212 W/m2
16:22 14.5 °C 12.7 °C 1016.5 hPa South 11.1 km/h 18.3 km/h 89% 0.0 mm 230 W/m2
16:40 15.0 °C 11.9 °C 1016.5 hPa South 8.7 km/h 29.4 km/h 82% 0.0 mm 173 W/m2
16:45 14.9 °C 12.1 °C 1016.5 hPa South 15.8 km/h 28.0 km/h 83% 0.0 mm 220 W/m2
16:50 15.0 °C 11.9 °C 1016.5 hPa South 15.8 km/h 23.3 km/h 82% 0.0 mm 160 W/m2
17:06 14.9 °C 11.5 °C 1016.5 hPa SSE 15.8 km/h 33.1 km/h 80% 0.0 mm 193 W/m2
17:11 15.1 °C 11.7 °C 1016.5 hPa South 14.8 km/h 33.1 km/h 80% 0.0 mm 183 W/m2
17:16 15.2 °C 11.2 °C 1016.5 hPa South 18.3 km/h 27.0 km/h 77% 0.0 mm 223 W/m2
17:21 15.3 °C 11.3 °C 1016.8 hPa South 19.5 km/h 28.0 km/h 77% 0.0 mm 207 W/m2
17:26 15.4 °C 11.6 °C 1016.8 hPa South 14.8 km/h 29.4 km/h 78% 0.0 mm 166 W/m2
17:31 15.4 °C 11.4 °C 1016.8 hPa South 14.8 km/h 29.4 km/h 77% 0.0 mm 234 W/m2
17:36 15.6 °C 11.8 °C 1016.5 hPa South 15.8 km/h 27.0 km/h 78% 0.0 mm 195 W/m2
17:41 15.5 °C 11.9 °C 1016.8 hPa South 14.8 km/h 27.0 km/h 79% 0.0 mm 184 W/m2
17:51 15.8 °C 12.2 °C 1016.8 hPa SSW 12.2 km/h 21.9 km/h 79% 0.0 mm 278 W/m2
17:56 15.9 °C 12.1 °C 1016.8 hPa SSW 20.9 km/h 25.6 km/h 78% 0.0 mm 280 W/m2
18:01 15.9 °C 11.7 °C 1016.8 hPa SSW 14.8 km/h 25.6 km/h 76% 0.0 mm 306 W/m2
18:11 16.3 °C 11.9 °C 1016.8 hPa South 15.8 km/h 28.0 km/h 75% 0.0 mm 280 W/m2
18:16 16.1 °C 11.9 °C 1016.8 hPa SSW 23.3 km/h 31.7 km/h 76% 0.0 mm 190 W/m2
18:21 15.4 °C 12.2 °C 1016.8 hPa SSW 14.8 km/h 31.7 km/h 81% 0.0 mm 187 W/m2
18:26 15.2 °C 12.2 °C 1016.8 hPa SSW 15.8 km/h 31.7 km/h 82% 0.0 mm 208 W/m2
18:31 15.4 °C 12.2 °C 1016.8 hPa South 20.9 km/h 27.0 km/h 81% 0.0 mm 193 W/m2
18:36 15.4 °C 12.6 °C 1016.8 hPa SSW 18.3 km/h 29.4 km/h 83% 0.0 mm 321 W/m2
18:41 15.2 °C 12.3 °C 1016.8 hPa SW 15.8 km/h 30.6 km/h 83% 0.0 mm 311 W/m2
18:46 15.3 °C 12.4 °C 1016.8 hPa SW 13.4 km/h 30.6 km/h 83% 0.0 mm 284 W/m2
18:51 15.2 °C 11.9 °C 1016.8 hPa SW 11.1 km/h 30.6 km/h 81% 0.0 mm 191 W/m2
18:56 15.2 °C 11.9 °C 1016.8 hPa SSW 15.8 km/h 30.6 km/h 81% 0.0 mm 151 W/m2
19:01 15.0 °C 11.8 °C 1016.8 hPa SSW 15.8 km/h 30.6 km/h 81% 0.0 mm 109 W/m2
19:11 14.8 °C 12.1 °C 1016.8 hPa South 20.9 km/h 34.3 km/h 84% 0.0 mm 136 W/m2
19:21 15.3 °C 12.4 °C 1016.5 hPa SSW 17.2 km/h 34.3 km/h 83% 0.0 mm 249 W/m2
19:26 15.3 °C 12.4 °C 1016.8 hPa SSW 19.5 km/h 37.8 km/h 83% 0.0 mm 276 W/m2
19:31 15.2 °C 12.3 °C 1016.5 hPa SSW 20.9 km/h 37.8 km/h 83% 0.0 mm 265 W/m2
19:36 15.1 °C 12.4 °C 1016.8 hPa SSW 19.5 km/h 30.6 km/h 84% 0.0 mm 216 W/m2
19:46 15.0 °C 12.3 °C 1016.5 hPa SSW 15.8 km/h 28.0 km/h 84% 0.0 mm 211 W/m2
19:51 15.1 °C 12.2 °C 1016.5 hPa SW 12.2 km/h 27.0 km/h 83% 0.0 mm 189 W/m2
19:56 15.1 °C 12.2 °C 1016.5 hPa SW 19.5 km/h 31.7 km/h 83% 0.0 mm 191 W/m2
20:11 14.6 °C 12.1 °C 1016.5 hPa SW 23.3 km/h 33.1 km/h 85% 0.0 mm 141 W/m2
20:16 14.5 °C 12.4 °C 1016.5 hPa SW 20.9 km/h 33.1 km/h 87% 0.0 mm 181 W/m2
20:21 14.5 °C 12.2 °C 1016.8 hPa SSW 24.5 km/h 34.3 km/h 86% 0.0 mm 147 W/m2
20:31 14.7 °C 12.2 °C 1016.5 hPa SSW 20.9 km/h 34.3 km/h 85% 0.0 mm 160 W/m2
20:41 14.9 °C 12.2 °C 1016.5 hPa South 21.9 km/h 39.3 km/h 84% 0.0 mm 182 W/m2
20:51 14.9 °C 11.8 °C 1016.8 hPa South 19.5 km/h 34.3 km/h 82% 0.0 mm 192 W/m2
20:56 15.1 °C 11.9 °C 1016.5 hPa SSW 23.3 km/h 36.7 km/h 81% 0.0 mm 213 W/m2
21:06 15.2 °C 11.9 °C 1016.5 hPa SSW 23.3 km/h 36.7 km/h 81% 0.0 mm 286 W/m2
21:11 15.2 °C 11.6 °C 1016.8 hPa South 17.2 km/h 35.6 km/h 79% 0.0 mm 291 W/m2
21:14 15.2 °C 11.6 °C 1016.5 hPa South 20.9 km/h 36.7 km/h 79% 0.0 mm 281 W/m2
21:24 15.4 °C 11.6 °C 1016.5 hPa SSW 19.5 km/h 30.6 km/h 78% 0.0 mm 282 W/m2
21:29 15.3 °C 11.5 °C 1016.5 hPa South 18.3 km/h 35.6 km/h 78% 0.0 mm 256 W/m2
21:49 15.4 °C 11.8 °C 1016.5 hPa South 17.2 km/h 34.3 km/h 79% 0.0 mm 276 W/m2
22:14 15.8 °C 12.2 °C 1016.1 hPa SSW 18.3 km/h 33.1 km/h 79% 0.0 mm 276 W/m2
22:24 16.1 °C 12.3 °C 1016.5 hPa SSW 23.3 km/h 33.1 km/h 78% 0.0 mm 592 W/m2
22:29 16.3 °C 12.1 °C 1016.5 hPa SSW 23.3 km/h 34.3 km/h 76% 0.0 mm 302 W/m2
22:34 16.1 °C 11.9 °C 1016.5 hPa South 17.2 km/h 34.3 km/h 76% 0.0 mm 213 W/m2
22:39 15.7 °C 11.9 °C 1016.5 hPa SSW 21.9 km/h 33.1 km/h 78% 0.0 mm 443 W/m2
22:44 16.3 °C 12.1 °C 1016.5 hPa SW 17.2 km/h 33.1 km/h 76% 0.0 mm 442 W/m2
22:49 16.5 °C 12.1 °C 1016.8 hPa SSW 19.5 km/h 33.1 km/h 75% 0.0 mm 408 W/m2
22:59 16.2 °C 11.6 °C 1016.8 hPa South 15.8 km/h 35.6 km/h 74% 0.0 mm 230 W/m2
23:14 15.9 °C 11.5 °C 1016.8 hPa SSW 20.9 km/h 29.4 km/h 75% 0.0 mm 198 W/m2
23:19 15.9 °C 11.5 °C 1016.5 hPa SSW 18.3 km/h 31.7 km/h 75% 0.0 mm 396 W/m2
23:24 16.3 °C 11.4 °C 1016.5 hPa South 20.9 km/h 31.7 km/h 73% 0.0 mm 321 W/m2
23:34 16.0 °C 10.8 °C 1016.5 hPa South 15.8 km/h 31.7 km/h 71% 0.0 mm 319 W/m2
23:44 15.4 °C 11.0 °C 1016.5 hPa SSW 19.5 km/h 29.4 km/h 75% 0.0 mm 170 W/m2
23:54 15.5 °C 11.1 °C 1016.5 hPa SSW 15.8 km/h 27.0 km/h 75% 0.0 mm 113 W/m2
23:59 15.1 °C 10.9 °C 1016.5 hPa SSW 19.5 km/h 28.0 km/h 76% 0.0 mm 99 W/m2
Northern Hawkes Bay. New Zealand Historic Data
Compliments of Weather Underground - 2 mb